sensor_id;sensor_type;location;lat;lon;timestamp;P1;durP1;ratioP1;P2;durP2;ratioP2
18296;SDS011;18066;52.106;5.534;2022-08-19T00:10:46;5.82;;;4.63;;
18296;SDS011;18066;52.106;5.534;2022-08-19T00:13:13;7.28;;;4.50;;
18296;SDS011;18066;52.106;5.534;2022-08-19T00:15:42;4.00;;;3.70;;
18296;SDS011;18066;52.106;5.534;2022-08-19T00:18:09;3.60;;;3.30;;
18296;SDS011;18066;52.106;5.534;2022-08-19T00:20:36;3.55;;;3.25;;
18296;SDS011;18066;52.106;5.534;2022-08-19T00:23:05;2.97;;;2.78;;
18296;SDS011;18066;52.106;5.534;2022-08-19T00:25:33;1.85;;;1.75;;
18296;SDS011;18066;52.106;5.534;2022-08-19T00:28:03;3.42;;;2.58;;
18296;SDS011;18066;52.106;5.534;2022-08-19T00:33:05;2.97;;;2.78;;
18296;SDS011;18066;52.106;5.534;2022-08-19T00:35:33;3.05;;;2.85;;
18296;SDS011;18066;52.106;5.534;2022-08-19T00:38:00;2.35;;;2.17;;
18296;SDS011;18066;52.106;5.534;2022-08-19T00:40:27;2.30;;;1.98;;
18296;SDS011;18066;52.106;5.534;2022-08-19T00:42:55;2.38;;;1.67;;
18296;SDS011;18066;52.106;5.534;2022-08-19T00:47:54;2.58;;;1.58;;
18296;SDS011;18066;52.106;5.534;2022-08-19T00:50:21;2.50;;;1.30;;
18296;SDS011;18066;52.106;5.534;2022-08-19T00:52:49;1.58;;;1.48;;
18296;SDS011;18066;52.106;5.534;2022-08-19T00:55:18;1.63;;;1.52;;
18296;SDS011;18066;52.106;5.534;2022-08-19T00:57:50;2.03;;;1.42;;
18296;SDS011;18066;52.106;5.534;2022-08-19T01:00:21;0.88;;;0.88;;
18296;SDS011;18066;52.106;5.534;2022-08-19T01:02:51;1.30;;;1.20;;
18296;SDS011;18066;52.106;5.534;2022-08-19T01:05:21;1.30;;;1.20;;
18296;SDS011;18066;52.106;5.534;2022-08-19T01:07:52;1.40;;;1.30;;
18296;SDS011;18066;52.106;5.534;2022-08-19T01:10:21;2.25;;;2.05;;
18296;SDS011;18066;52.106;5.534;2022-08-19T01:12:51;2.00;;;1.90;;
18296;SDS011;18066;52.106;5.534;2022-08-19T01:15:21;1.90;;;1.80;;
18296;SDS011;18066;52.106;5.534;2022-08-19T01:17:51;2.53;;;2.33;;
18296;SDS011;18066;52.106;5.534;2022-08-19T01:20:21;2.97;;;2.65;;
18296;SDS011;18066;52.106;5.534;2022-08-19T01:22:51;2.42;;;2.22;;
18296;SDS011;18066;52.106;5.534;2022-08-19T01:25:20;1.85;;;1.75;;
18296;SDS011;18066;52.106;5.534;2022-08-19T01:27:50;3.08;;;2.15;;
18296;SDS011;18066;52.106;5.534;2022-08-19T01:30:19;1.65;;;1.55;;
18296;SDS011;18066;52.106;5.534;2022-08-19T01:32:47;1.83;;;1.73;;
18296;SDS011;18066;52.106;5.534;2022-08-19T01:35:15;2.50;;;2.30;;
18296;SDS011;18066;52.106;5.534;2022-08-19T01:37:48;2.40;;;1.88;;
18296;SDS011;18066;52.106;5.534;2022-08-19T01:40:18;3.25;;;1.58;;
18296;SDS011;18066;52.106;5.534;2022-08-19T01:42:46;2.92;;;2.13;;
18296;SDS011;18066;52.106;5.534;2022-08-19T01:45:13;2.80;;;2.60;;
18296;SDS011;18066;52.106;5.534;2022-08-19T01:47:40;4.78;;;2.83;;
18296;SDS011;18066;52.106;5.534;2022-08-19T01:50:07;3.80;;;3.42;;
18296;SDS011;18066;52.106;5.534;2022-08-19T01:52:36;5.47;;;3.50;;
18296;SDS011;18066;52.106;5.534;2022-08-19T01:55:04;3.13;;;2.83;;
18296;SDS011;18066;52.106;5.534;2022-08-19T01:57:33;5.57;;;2.67;;
18296;SDS011;18066;52.106;5.534;2022-08-19T02:00:00;2.17;;;1.90;;
18296;SDS011;18066;52.106;5.534;2022-08-19T02:02:31;1.85;;;1.75;;
18296;SDS011;18066;52.106;5.534;2022-08-19T02:04:58;1.77;;;1.67;;
18296;SDS011;18066;52.106;5.534;2022-08-19T02:07:24;7.15;;;1.90;;
18296;SDS011;18066;52.106;5.534;2022-08-19T02:09:53;7.30;;;2.75;;
18296;SDS011;18066;52.106;5.534;2022-08-19T02:12:21;4.10;;;3.08;;
18296;SDS011;18066;52.106;5.534;2022-08-19T02:14:49;3.60;;;2.42;;
18296;SDS011;18066;52.106;5.534;2022-08-19T02:17:16;5.75;;;3.10;;
18296;SDS011;18066;52.106;5.534;2022-08-19T02:19:43;7.40;;;3.17;;
18296;SDS011;18066;52.106;5.534;2022-08-19T02:22:09;3.78;;;2.85;;
18296;SDS011;18066;52.106;5.534;2022-08-19T02:24:36;6.45;;;3.65;;
18296;SDS011;18066;52.106;5.534;2022-08-19T02:27:04;5.20;;;4.13;;
18296;SDS011;18066;52.106;5.534;2022-08-19T02:29:31;7.85;;;4.22;;
18296;SDS011;18066;52.106;5.534;2022-08-19T02:31:59;4.93;;;3.97;;
18296;SDS011;18066;52.106;5.534;2022-08-19T02:34:26;7.90;;;4.63;;
18296;SDS011;18066;52.106;5.534;2022-08-19T02:36:52;4.80;;;4.30;;
18296;SDS011;18066;52.106;5.534;2022-08-19T02:39:19;5.53;;;5.00;;
18296;SDS011;18066;52.106;5.534;2022-08-19T02:41:45;5.50;;;4.88;;
18296;SDS011;18066;52.106;5.534;2022-08-19T02:44:12;7.53;;;5.03;;
18296;SDS011;18066;52.106;5.534;2022-08-19T02:46:38;5.47;;;4.90;;
18296;SDS011;18066;52.106;5.534;2022-08-19T02:49:07;5.93;;;4.72;;
18296;SDS011;18066;52.106;5.534;2022-08-19T02:51:34;7.05;;;5.00;;
18296;SDS011;18066;52.106;5.534;2022-08-19T02:54:04;8.13;;;5.20;;
18296;SDS011;18066;52.106;5.534;2022-08-19T02:56:32;6.93;;;5.13;;
18296;SDS011;18066;52.106;5.534;2022-08-19T02:59:00;8.30;;;5.93;;
18296;SDS011;18066;52.106;5.534;2022-08-19T03:01:28;6.50;;;5.22;;
18296;SDS011;18066;52.106;5.534;2022-08-19T03:03:58;6.78;;;4.50;;
18296;SDS011;18066;52.106;5.534;2022-08-19T03:06:29;4.57;;;4.07;;
18296;SDS011;18066;52.106;5.534;2022-08-19T03:08:57;3.55;;;3.25;;
18296;SDS011;18066;52.106;5.534;2022-08-19T03:11:25;4.05;;;3.50;;
18296;SDS011;18066;52.106;5.534;2022-08-19T03:13:54;11.80;;;5.63;;
18296;SDS011;18066;52.106;5.534;2022-08-19T03:16:22;10.30;;;5.28;;
18296;SDS011;18066;52.106;5.534;2022-08-19T03:18:51;5.30;;;3.75;;
18296;SDS011;18066;52.106;5.534;2022-08-19T03:21:22;7.65;;;3.80;;
18296;SDS011;18066;52.106;5.534;2022-08-19T03:23:53;6.57;;;4.60;;
18296;SDS011;18066;52.106;5.534;2022-08-19T03:26:20;7.40;;;4.10;;
18296;SDS011;18066;52.106;5.534;2022-08-19T03:28:46;4.68;;;3.90;;
18296;SDS011;18066;52.106;5.534;2022-08-19T03:31:15;4.82;;;4.30;;
18296;SDS011;18066;52.106;5.534;2022-08-19T03:33:43;5.10;;;4.22;;
18296;SDS011;18066;52.106;5.534;2022-08-19T03:36:11;4.28;;;3.88;;
18296;SDS011;18066;52.106;5.534;2022-08-19T03:38:41;11.52;;;4.25;;
18296;SDS011;18066;52.106;5.534;2022-08-19T03:41:11;4.78;;;3.92;;
18296;SDS011;18066;52.106;5.534;2022-08-19T03:43:40;9.55;;;4.70;;
18296;SDS011;18066;52.106;5.534;2022-08-19T03:46:10;7.57;;;5.15;;
18296;SDS011;18066;52.106;5.534;2022-08-19T03:48:38;6.25;;;4.18;;
18296;SDS011;18066;52.106;5.534;2022-08-19T03:51:07;5.10;;;3.70;;
18296;SDS011;18066;52.106;5.534;2022-08-19T03:53:41;7.93;;;5.00;;
18296;SDS011;18066;52.106;5.534;2022-08-19T03:56:08;4.90;;;4.40;;
18296;SDS011;18066;52.106;5.534;2022-08-19T03:58:37;5.63;;;4.47;;
18296;SDS011;18066;52.106;5.534;2022-08-19T04:01:06;6.97;;;5.40;;
18296;SDS011;18066;52.106;5.534;2022-08-19T04:03:35;7.00;;;5.55;;
18296;SDS011;18066;52.106;5.534;2022-08-19T04:06:08;6.00;;;5.40;;
18296;SDS011;18066;52.106;5.534;2022-08-19T04:08:37;7.82;;;5.80;;
18296;SDS011;18066;52.106;5.534;2022-08-19T04:11:06;6.30;;;5.38;;
18296;SDS011;18066;52.106;5.534;2022-08-19T04:13:33;5.45;;;4.95;;
18296;SDS011;18066;52.106;5.534;2022-08-19T04:16:04;5.57;;;5.07;;
18296;SDS011;18066;52.106;5.534;2022-08-19T04:18:31;6.90;;;4.20;;
18296;SDS011;18066;52.106;5.534;2022-08-19T04:20:59;7.20;;;4.28;;
18296;SDS011;18066;52.106;5.534;2022-08-19T04:23:26;4.78;;;4.15;;
18296;SDS011;18066;52.106;5.534;2022-08-19T04:25:53;6.40;;;3.47;;
18296;SDS011;18066;52.106;5.534;2022-08-19T04:28:21;3.92;;;3.47;;
18296;SDS011;18066;52.106;5.534;2022-08-19T04:30:49;4.57;;;3.85;;
18296;SDS011;18066;52.106;5.534;2022-08-19T04:33:20;4.45;;;3.80;;
18296;SDS011;18066;52.106;5.534;2022-08-19T04:35:48;4.20;;;3.80;;
18296;SDS011;18066;52.106;5.534;2022-08-19T04:38:17;3.83;;;3.50;;
18296;SDS011;18066;52.106;5.534;2022-08-19T04:40:45;5.00;;;4.45;;
18296;SDS011;18066;52.106;5.534;2022-08-19T04:43:32;5.68;;;4.20;;
18296;SDS011;18066;52.106;5.534;2022-08-19T04:46:03;3.88;;;3.50;;
18296;SDS011;18066;52.106;5.534;2022-08-19T04:48:32;3.95;;;3.58;;
18296;SDS011;18066;52.106;5.534;2022-08-19T04:50:59;5.35;;;4.10;;
18296;SDS011;18066;52.106;5.534;2022-08-19T04:53:27;5.28;;;3.90;;
18296;SDS011;18066;52.106;5.534;2022-08-19T04:55:55;4.30;;;3.90;;
18296;SDS011;18066;52.106;5.534;2022-08-19T04:58:23;4.55;;;3.53;;
18296;SDS011;18066;52.106;5.534;2022-08-19T05:00:51;6.40;;;4.22;;
18296;SDS011;18066;52.106;5.534;2022-08-19T05:03:18;5.32;;;4.82;;
18296;SDS011;18066;52.106;5.534;2022-08-19T05:05:47;5.20;;;4.70;;
18296;SDS011;18066;52.106;5.534;2022-08-19T05:08:15;4.28;;;3.88;;
18296;SDS011;18066;52.106;5.534;2022-08-19T05:10:45;7.20;;;3.78;;
18296;SDS011;18066;52.106;5.534;2022-08-19T05:13:13;4.43;;;3.33;;
18296;SDS011;18066;52.106;5.534;2022-08-19T05:15:41;6.68;;;4.00;;
18296;SDS011;18066;52.106;5.534;2022-08-19T05:18:08;4.75;;;4.15;;
18296;SDS011;18066;52.106;5.534;2022-08-19T05:20:54;3.92;;;3.53;;
18296;SDS011;18066;52.106;5.534;2022-08-19T05:23:38;4.25;;;3.85;;
18296;SDS011;18066;52.106;5.534;2022-08-19T05:26:06;5.35;;;4.53;;
18296;SDS011;18066;52.106;5.534;2022-08-19T05:28:34;5.95;;;4.75;;
18296;SDS011;18066;52.106;5.534;2022-08-19T05:31:01;6.47;;;5.70;;
18296;SDS011;18066;52.106;5.534;2022-08-19T05:33:27;5.57;;;5.07;;
18296;SDS011;18066;52.106;5.534;2022-08-19T05:35:56;6.88;;;4.82;;
18296;SDS011;18066;52.106;5.534;2022-08-19T05:38:23;5.15;;;4.65;;
18296;SDS011;18066;52.106;5.534;2022-08-19T05:40:51;7.53;;;5.03;;
18296;SDS011;18066;52.106;5.534;2022-08-19T05:43:18;6.05;;;5.20;;
18296;SDS011;18066;52.106;5.534;2022-08-19T05:45:45;8.55;;;6.05;;
18296;SDS011;18066;52.106;5.534;2022-08-19T05:48:12;7.18;;;6.43;;
18296;SDS011;18066;52.106;5.534;2022-08-19T05:50:40;7.18;;;5.53;;
18296;SDS011;18066;52.106;5.534;2022-08-19T05:53:08;8.20;;;6.15;;
18296;SDS011;18066;52.106;5.534;2022-08-19T05:55:35;7.88;;;6.45;;
18296;SDS011;18066;52.106;5.534;2022-08-19T05:58:03;12.10;;;7.43;;
18296;SDS011;18066;52.106;5.534;2022-08-19T06:00:32;13.75;;;9.63;;
18296;SDS011;18066;52.106;5.534;2022-08-19T06:02:59;15.18;;;9.70;;
18296;SDS011;18066;52.106;5.534;2022-08-19T06:05:28;15.82;;;10.90;;
18296;SDS011;18066;52.106;5.534;2022-08-19T06:07:55;15.07;;;10.95;;
18296;SDS011;18066;52.106;5.534;2022-08-19T06:10:23;20.40;;;13.05;;
18296;SDS011;18066;52.106;5.534;2022-08-19T06:12:51;21.95;;;14.65;;
18296;SDS011;18066;52.106;5.534;2022-08-19T06:15:18;28.73;;;17.15;;
18296;SDS011;18066;52.106;5.534;2022-08-19T06:17:49;29.73;;;18.80;;
18296;SDS011;18066;52.106;5.534;2022-08-19T06:20:15;25.45;;;17.88;;
18296;SDS011;18066;52.106;5.534;2022-08-19T06:22:44;29.40;;;18.88;;
18296;SDS011;18066;52.106;5.534;2022-08-19T06:25:13;33.80;;;20.80;;
18296;SDS011;18066;52.106;5.534;2022-08-19T06:27:42;35.22;;;20.95;;
18296;SDS011;18066;52.106;5.534;2022-08-19T06:30:09;45.95;;;23.98;;
18296;SDS011;18066;52.106;5.534;2022-08-19T06:32:37;42.50;;;24.88;;
18296;SDS011;18066;52.106;5.534;2022-08-19T06:35:04;55.63;;;26.65;;
18296;SDS011;18066;52.106;5.534;2022-08-19T06:37:31;59.90;;;30.13;;
18296;SDS011;18066;52.106;5.534;2022-08-19T06:39:58;57.80;;;30.52;;
18296;SDS011;18066;52.106;5.534;2022-08-19T06:42:25;56.47;;;29.02;;
18296;SDS011;18066;52.106;5.534;2022-08-19T06:44:53;63.38;;;32.72;;
18296;SDS011;18066;52.106;5.534;2022-08-19T06:47:20;60.70;;;33.10;;
18296;SDS011;18066;52.106;5.534;2022-08-19T06:49:47;58.25;;;32.78;;
18296;SDS011;18066;52.106;5.534;2022-08-19T06:52:14;61.70;;;35.95;;
18296;SDS011;18066;52.106;5.534;2022-08-19T06:54:41;64.50;;;36.88;;
18296;SDS011;18066;52.106;5.534;2022-08-19T06:57:08;64.10;;;34.78;;
18296;SDS011;18066;52.106;5.534;2022-08-19T06:59:40;61.15;;;34.38;;
18296;SDS011;18066;52.106;5.534;2022-08-19T07:02:08;55.33;;;34.72;;
18296;SDS011;18066;52.106;5.534;2022-08-19T07:04:35;63.95;;;35.95;;
18296;SDS011;18066;52.106;5.534;2022-08-19T07:07:04;70.80;;;37.75;;
18296;SDS011;18066;52.106;5.534;2022-08-19T07:09:34;66.57;;;36.67;;
18296;SDS011;18066;52.106;5.534;2022-08-19T07:12:03;65.60;;;36.03;;
18296;SDS011;18066;52.106;5.534;2022-08-19T07:14:31;72.82;;;37.20;;
18296;SDS011;18066;52.106;5.534;2022-08-19T07:17:00;64.78;;;35.47;;
18296;SDS011;18066;52.106;5.534;2022-08-19T07:19:28;65.53;;;35.30;;
18296;SDS011;18066;52.106;5.534;2022-08-19T07:21:56;63.15;;;32.97;;
18296;SDS011;18066;52.106;5.534;2022-08-19T07:24:25;64.72;;;33.67;;
18296;SDS011;18066;52.106;5.534;2022-08-19T07:26:54;61.92;;;33.40;;
18296;SDS011;18066;52.106;5.534;2022-08-19T07:29:25;56.65;;;32.00;;
18296;SDS011;18066;52.106;5.534;2022-08-19T07:31:53;57.78;;;32.75;;
18296;SDS011;18066;52.106;5.534;2022-08-19T07:34:22;57.35;;;32.60;;
18296;SDS011;18066;52.106;5.534;2022-08-19T07:36:51;64.55;;;33.08;;
18296;SDS011;18066;52.106;5.534;2022-08-19T07:39:19;64.07;;;33.40;;
18296;SDS011;18066;52.106;5.534;2022-08-19T07:41:48;69.45;;;37.30;;
18296;SDS011;18066;52.106;5.534;2022-08-19T07:44:16;72.00;;;38.53;;
18296;SDS011;18066;52.106;5.534;2022-08-19T07:46:45;59.30;;;33.20;;
18296;SDS011;18066;52.106;5.534;2022-08-19T07:49:20;62.45;;;34.40;;
18296;SDS011;18066;52.106;5.534;2022-08-19T07:51:49;65.50;;;35.78;;
18296;SDS011;18066;52.106;5.534;2022-08-19T07:54:19;59.63;;;33.10;;
18296;SDS011;18066;52.106;5.534;2022-08-19T07:56:47;56.38;;;34.13;;
18296;SDS011;18066;52.106;5.534;2022-08-19T07:59:15;55.47;;;32.22;;
18296;SDS011;18066;52.106;5.534;2022-08-19T08:01:42;54.90;;;32.70;;
18296;SDS011;18066;52.106;5.534;2022-08-19T08:04:10;53.55;;;30.40;;
18296;SDS011;18066;52.106;5.534;2022-08-19T08:06:55;53.05;;;29.58;;
18296;SDS011;18066;52.106;5.534;2022-08-19T08:09:40;43.40;;;29.27;;
18296;SDS011;18066;52.106;5.534;2022-08-19T08:12:10;48.15;;;31.23;;
18296;SDS011;18066;52.106;5.534;2022-08-19T08:14:40;47.38;;;31.92;;
18296;SDS011;18066;52.106;5.534;2022-08-19T08:17:11;52.47;;;31.67;;
18296;SDS011;18066;52.106;5.534;2022-08-19T08:19:39;52.20;;;29.92;;
18296;SDS011;18066;52.106;5.534;2022-08-19T08:22:08;44.83;;;28.42;;
18296;SDS011;18066;52.106;5.534;2022-08-19T08:24:56;43.05;;;27.35;;
18296;SDS011;18066;52.106;5.534;2022-08-19T08:27:26;50.25;;;31.33;;
18296;SDS011;18066;52.106;5.534;2022-08-19T08:29:54;47.78;;;30.80;;
18296;SDS011;18066;52.106;5.534;2022-08-19T08:32:21;51.15;;;30.98;;
18296;SDS011;18066;52.106;5.534;2022-08-19T08:34:48;49.63;;;32.30;;
18296;SDS011;18066;52.106;5.534;2022-08-19T08:37:16;54.00;;;31.55;;
18296;SDS011;18066;52.106;5.534;2022-08-19T08:39:42;45.50;;;29.95;;
18296;SDS011;18066;52.106;5.534;2022-08-19T08:42:11;43.58;;;28.90;;
18296;SDS011;18066;52.106;5.534;2022-08-19T08:44:47;41.13;;;26.85;;
18296;SDS011;18066;52.106;5.534;2022-08-19T08:47:19;46.10;;;27.45;;
18296;SDS011;18066;52.106;5.534;2022-08-19T08:49:50;38.42;;;25.70;;
18296;SDS011;18066;52.106;5.534;2022-08-19T08:52:22;40.50;;;25.73;;
18296;SDS011;18066;52.106;5.534;2022-08-19T08:54:52;39.72;;;25.23;;
18296;SDS011;18066;52.106;5.534;2022-08-19T08:57:24;37.58;;;25.15;;
18296;SDS011;18066;52.106;5.534;2022-08-19T08:59:53;34.20;;;23.15;;
18296;SDS011;18066;52.106;5.534;2022-08-19T09:02:23;30.65;;;21.73;;
18296;SDS011;18066;52.106;5.534;2022-08-19T09:04:50;33.08;;;22.08;;
18296;SDS011;18066;52.106;5.534;2022-08-19T09:07:21;34.33;;;23.33;;
18296;SDS011;18066;52.106;5.534;2022-08-19T09:09:54;28.20;;;20.02;;
18296;SDS011;18066;52.106;5.534;2022-08-19T09:12:33;30.27;;;22.35;;
18296;SDS011;18066;52.106;5.534;2022-08-19T09:15:09;28.45;;;21.55;;
18296;SDS011;18066;52.106;5.534;2022-08-19T09:17:37;33.28;;;23.00;;
18296;SDS011;18066;52.106;5.534;2022-08-19T09:20:06;34.67;;;23.20;;
18296;SDS011;18066;52.106;5.534;2022-08-19T09:22:43;34.28;;;22.02;;
18296;SDS011;18066;52.106;5.534;2022-08-19T09:25:13;33.45;;;22.45;;
18296;SDS011;18066;52.106;5.534;2022-08-19T09:27:48;32.83;;;21.38;;
18296;SDS011;18066;52.106;5.534;2022-08-19T09:30:20;40.40;;;24.60;;
18296;SDS011;18066;52.106;5.534;2022-08-19T09:38:02;26.60;;;17.98;;
18296;SDS011;18066;52.106;5.534;2022-08-19T09:40:32;24.30;;;18.17;;
18296;SDS011;18066;52.106;5.534;2022-08-19T09:42:59;21.88;;;16.65;;
18296;SDS011;18066;52.106;5.534;2022-08-19T09:45:27;28.23;;;18.17;;
18296;SDS011;18066;52.106;5.534;2022-08-19T09:47:55;27.00;;;18.38;;
18296;SDS011;18066;52.106;5.534;2022-08-19T09:50:23;22.95;;;16.92;;
18296;SDS011;18066;52.106;5.534;2022-08-19T09:52:50;22.83;;;15.38;;
18296;SDS011;18066;52.106;5.534;2022-08-19T09:55:20;21.77;;;16.35;;
18296;SDS011;18066;52.106;5.534;2022-08-19T09:57:47;19.77;;;14.70;;
18296;SDS011;18066;52.106;5.534;2022-08-19T10:00:14;25.08;;;15.80;;
18296;SDS011;18066;52.106;5.534;2022-08-19T10:02:41;23.05;;;16.80;;
18296;SDS011;18066;52.106;5.534;2022-08-19T10:05:08;27.35;;;15.55;;
18296;SDS011;18066;52.106;5.534;2022-08-19T10:07:52;22.00;;;16.70;;
18296;SDS011;18066;52.106;5.534;2022-08-19T10:10:21;20.95;;;14.95;;
18296;SDS011;18066;52.106;5.534;2022-08-19T10:12:48;23.70;;;16.40;;
18296;SDS011;18066;52.106;5.534;2022-08-19T10:15:15;19.48;;;14.30;;
18296;SDS011;18066;52.106;5.534;2022-08-19T10:17:46;18.98;;;14.63;;
18296;SDS011;18066;52.106;5.534;2022-08-19T10:20:12;23.50;;;15.95;;
18296;SDS011;18066;52.106;5.534;2022-08-19T10:22:39;21.90;;;14.70;;
18296;SDS011;18066;52.106;5.534;2022-08-19T10:25:07;30.77;;;19.05;;
18296;SDS011;18066;52.106;5.534;2022-08-19T10:27:35;24.08;;;18.00;;
18296;SDS011;18066;52.106;5.534;2022-08-19T10:30:03;25.30;;;17.77;;
18296;SDS011;18066;52.106;5.534;2022-08-19T10:32:31;22.23;;;16.48;;
18296;SDS011;18066;52.106;5.534;2022-08-19T10:34:58;22.80;;;17.55;;
18296;SDS011;18066;52.106;5.534;2022-08-19T10:37:25;22.92;;;14.35;;
18296;SDS011;18066;52.106;5.534;2022-08-19T10:39:52;17.83;;;13.63;;
18296;SDS011;18066;52.106;5.534;2022-08-19T10:42:19;20.85;;;14.20;;
18296;SDS011;18066;52.106;5.534;2022-08-19T10:44:47;19.80;;;14.93;;
18296;SDS011;18066;52.106;5.534;2022-08-19T10:47:14;28.10;;;18.10;;
18296;SDS011;18066;52.106;5.534;2022-08-19T10:49:41;30.67;;;18.27;;
18296;SDS011;18066;52.106;5.534;2022-08-19T10:52:25;24.27;;;17.92;;
18296;SDS011;18066;52.106;5.534;2022-08-19T10:55:02;21.08;;;16.67;;
18296;SDS011;18066;52.106;5.534;2022-08-19T10:57:47;32.20;;;19.35;;
18296;SDS011;18066;52.106;5.534;2022-08-19T11:00:15;28.13;;;20.40;;
18296;SDS011;18066;52.106;5.534;2022-08-19T11:02:42;25.20;;;18.77;;
18296;SDS011;18066;52.106;5.534;2022-08-19T11:05:09;27.52;;;20.52;;
18296;SDS011;18066;52.106;5.534;2022-08-19T11:07:36;26.02;;;19.95;;
18296;SDS011;18066;52.106;5.534;2022-08-19T11:10:04;28.00;;;22.23;;
18296;SDS011;18066;52.106;5.534;2022-08-19T11:12:32;32.13;;;22.58;;
18296;SDS011;18066;52.106;5.534;2022-08-19T11:14:59;26.55;;;21.00;;
18296;SDS011;18066;52.106;5.534;2022-08-19T11:17:27;25.88;;;19.17;;
18296;SDS011;18066;52.106;5.534;2022-08-19T11:19:56;30.35;;;21.90;;
18296;SDS011;18066;52.106;5.534;2022-08-19T11:22:23;29.75;;;21.38;;
18296;SDS011;18066;52.106;5.534;2022-08-19T11:24:50;27.17;;;20.40;;
18296;SDS011;18066;52.106;5.534;2022-08-19T11:27:17;32.20;;;22.15;;
18296;SDS011;18066;52.106;5.534;2022-08-19T11:29:44;31.83;;;23.67;;
18296;SDS011;18066;52.106;5.534;2022-08-19T11:32:11;34.95;;;25.83;;
18296;SDS011;18066;52.106;5.534;2022-08-19T11:34:39;34.65;;;25.95;;
18296;SDS011;18066;52.106;5.534;2022-08-19T11:37:06;33.55;;;25.80;;
18296;SDS011;18066;52.106;5.534;2022-08-19T11:39:34;42.40;;;27.88;;
18296;SDS011;18066;52.106;5.534;2022-08-19T11:42:02;40.38;;;29.20;;
18296;SDS011;18066;52.106;5.534;2022-08-19T11:44:50;35.55;;;25.85;;
18296;SDS011;18066;52.106;5.534;2022-08-19T11:47:17;42.47;;;29.25;;
18296;SDS011;18066;52.106;5.534;2022-08-19T11:49:46;41.42;;;29.75;;
18296;SDS011;18066;52.106;5.534;2022-08-19T11:52:13;37.67;;;29.15;;
18296;SDS011;18066;52.106;5.534;2022-08-19T11:54:40;33.08;;;26.90;;
18296;SDS011;18066;52.106;5.534;2022-08-19T11:57:06;39.70;;;28.80;;
18296;SDS011;18066;52.106;5.534;2022-08-19T11:59:33;36.33;;;27.05;;
18296;SDS011;18066;52.106;5.534;2022-08-19T12:02:00;33.55;;;25.17;;
18296;SDS011;18066;52.106;5.534;2022-08-19T12:04:26;32.67;;;26.00;;
18296;SDS011;18066;52.106;5.534;2022-08-19T12:06:54;34.22;;;24.60;;
18296;SDS011;18066;52.106;5.534;2022-08-19T12:09:21;30.70;;;25.83;;
18296;SDS011;18066;52.106;5.534;2022-08-19T12:11:48;37.08;;;26.20;;
18296;SDS011;18066;52.106;5.534;2022-08-19T12:14:15;35.53;;;25.98;;
18296;SDS011;18066;52.106;5.534;2022-08-19T12:16:43;37.28;;;25.33;;
18296;SDS011;18066;52.106;5.534;2022-08-19T12:19:11;33.65;;;25.48;;
18296;SDS011;18066;52.106;5.534;2022-08-19T12:21:38;31.70;;;22.77;;
18296;SDS011;18066;52.106;5.534;2022-08-19T12:24:06;32.25;;;25.13;;
18296;SDS011;18066;52.106;5.534;2022-08-19T12:26:34;29.80;;;23.70;;
18296;SDS011;18066;52.106;5.534;2022-08-19T12:29:01;31.60;;;22.85;;
18296;SDS011;18066;52.106;5.534;2022-08-19T12:31:29;31.73;;;22.70;;
18296;SDS011;18066;52.106;5.534;2022-08-19T12:33:56;42.92;;;24.75;;
18296;SDS011;18066;52.106;5.534;2022-08-19T12:36:24;37.13;;;25.52;;
18296;SDS011;18066;52.106;5.534;2022-08-19T12:38:51;42.08;;;27.08;;
18296;SDS011;18066;52.106;5.534;2022-08-19T12:41:19;35.83;;;26.00;;
18296;SDS011;18066;52.106;5.534;2022-08-19T12:43:47;32.70;;;26.13;;
18296;SDS011;18066;52.106;5.534;2022-08-19T12:46:14;32.10;;;25.13;;
18296;SDS011;18066;52.106;5.534;2022-08-19T12:48:41;32.53;;;26.70;;
18296;SDS011;18066;52.106;5.534;2022-08-19T12:51:10;31.52;;;23.25;;
18296;SDS011;18066;52.106;5.534;2022-08-19T12:53:38;29.77;;;24.05;;
18296;SDS011;18066;52.106;5.534;2022-08-19T12:56:05;30.77;;;23.58;;
18296;SDS011;18066;52.106;5.534;2022-08-19T12:58:33;31.58;;;25.27;;
18296;SDS011;18066;52.106;5.534;2022-08-19T13:01:05;40.40;;;28.10;;
18296;SDS011;18066;52.106;5.534;2022-08-19T13:03:33;33.38;;;26.30;;
18296;SDS011;18066;52.106;5.534;2022-08-19T13:06:00;36.90;;;27.15;;
18296;SDS011;18066;52.106;5.534;2022-08-19T13:08:26;33.95;;;26.08;;
18296;SDS011;18066;52.106;5.534;2022-08-19T13:10:53;34.03;;;24.77;;
18296;SDS011;18066;52.106;5.534;2022-08-19T13:13:20;30.80;;;24.33;;
18296;SDS011;18066;52.106;5.534;2022-08-19T13:15:48;27.98;;;21.50;;
18296;SDS011;18066;52.106;5.534;2022-08-19T13:18:15;25.55;;;19.55;;
18296;SDS011;18066;52.106;5.534;2022-08-19T13:20:42;18.15;;;15.73;;
18296;SDS011;18066;52.106;5.534;2022-08-19T13:23:09;17.85;;;14.45;;
18296;SDS011;18066;52.106;5.534;2022-08-19T13:25:36;20.75;;;17.08;;
18296;SDS011;18066;52.106;5.534;2022-08-19T13:28:03;22.98;;;18.63;;
18296;SDS011;18066;52.106;5.534;2022-08-19T13:30:31;23.33;;;17.58;;
18296;SDS011;18066;52.106;5.534;2022-08-19T13:33:17;26.27;;;19.75;;
18296;SDS011;18066;52.106;5.534;2022-08-19T13:35:45;23.98;;;17.42;;
18296;SDS011;18066;52.106;5.534;2022-08-19T13:38:14;18.80;;;15.27;;
18296;SDS011;18066;52.106;5.534;2022-08-19T13:40:42;22.13;;;19.73;;
18296;SDS011;18066;52.106;5.534;2022-08-19T13:43:09;29.05;;;22.17;;
18296;SDS011;18066;52.106;5.534;2022-08-19T13:45:36;23.40;;;20.08;;
18296;SDS011;18066;52.106;5.534;2022-08-19T13:48:03;25.60;;;20.27;;
18296;SDS011;18066;52.106;5.534;2022-08-19T13:50:35;24.00;;;19.67;;
18296;SDS011;18066;52.106;5.534;2022-08-19T13:53:15;32.42;;;20.88;;
18296;SDS011;18066;52.106;5.534;2022-08-19T13:55:43;39.25;;;26.08;;
18296;SDS011;18066;52.106;5.534;2022-08-19T13:58:10;24.38;;;20.80;;
18296;SDS011;18066;52.106;5.534;2022-08-19T14:00:39;26.45;;;21.25;;
18296;SDS011;18066;52.106;5.534;2022-08-19T14:03:08;28.27;;;22.67;;
18296;SDS011;18066;52.106;5.534;2022-08-19T14:05:36;26.02;;;20.63;;
18296;SDS011;18066;52.106;5.534;2022-08-19T14:08:03;21.88;;;18.10;;
18296;SDS011;18066;52.106;5.534;2022-08-19T14:10:30;35.10;;;22.20;;
18296;SDS011;18066;52.106;5.534;2022-08-19T14:12:58;36.22;;;24.67;;
18296;SDS011;18066;52.106;5.534;2022-08-19T14:15:27;24.40;;;18.40;;
18296;SDS011;18066;52.106;5.534;2022-08-19T14:17:55;19.15;;;12.85;;
18296;SDS011;18066;52.106;5.534;2022-08-19T14:20:22;12.73;;;9.00;;
18296;SDS011;18066;52.106;5.534;2022-08-19T14:22:50;7.22;;;6.40;;
18296;SDS011;18066;52.106;5.534;2022-08-19T14:25:18;6.20;;;5.60;;
18296;SDS011;18066;52.106;5.534;2022-08-19T14:27:46;6.25;;;5.53;;
18296;SDS011;18066;52.106;5.534;2022-08-19T14:30:15;8.57;;;6.82;;
18296;SDS011;18066;52.106;5.534;2022-08-19T14:32:43;10.15;;;9.20;;
18296;SDS011;18066;52.106;5.534;2022-08-19T14:35:10;10.60;;;9.50;;
18296;SDS011;18066;52.106;5.534;2022-08-19T14:37:39;13.45;;;10.82;;
18296;SDS011;18066;52.106;5.534;2022-08-19T14:40:08;14.25;;;11.40;;
18296;SDS011;18066;52.106;5.534;2022-08-19T14:42:36;14.38;;;10.98;;
18296;SDS011;18066;52.106;5.534;2022-08-19T14:45:03;14.88;;;12.10;;
18296;SDS011;18066;52.106;5.534;2022-08-19T14:47:31;15.93;;;12.90;;
18296;SDS011;18066;52.106;5.534;2022-08-19T14:49:58;14.77;;;12.38;;
18296;SDS011;18066;52.106;5.534;2022-08-19T14:52:24;14.93;;;12.48;;
18296;SDS011;18066;52.106;5.534;2022-08-19T14:54:51;12.40;;;11.10;;
18296;SDS011;18066;52.106;5.534;2022-08-19T14:57:19;16.35;;;12.35;;
18296;SDS011;18066;52.106;5.534;2022-08-19T14:59:47;15.68;;;11.73;;